Time;durP1;ratioP1;P1;durP2;ratioP2;P2;SDS_P1;SDS_P2;PMS_P1;PMS_P2;Temp;Humidity;BMP_temperature;BMP_pressure;BME280_temperature;BME280_humidity;BME280_pressure;Samples;Min_cycle;Max_cycle;Signal;HPM_P1;HPM_P2
2022/01/25 00:25:44;;;;;;;14.47;9.10;;;4.30;99.90;;;;;;4973827;28;20244;-75
2022/01/25 00:28:20;;;;;;;13.00;10.03;;;4.30;99.90;;;;;;4975308;28;20571;-75
2022/01/25 00:31:00;;;;;;;12.27;9.23;;;4.30;99.90;;;;;;4973841;28;20456;-75
2022/01/25 00:33:27;;;;;;;14.00;10.23;;;4.30;99.90;;;;;;4973098;28;20208;-73
2022/01/25 00:35:53;;;;;;;15.20;10.70;;;4.20;99.90;;;;;;4975697;28;20378;-73
2022/01/25 00:38:19;;;;;;;13.80;10.33;;;4.20;99.90;;;;;;4978477;28;20184;-76
2022/01/25 00:40:44;;;;;;;14.30;10.40;;;4.30;99.90;;;;;;4975969;28;20196;-75
2022/01/25 00:43:10;;;;;;;17.13;11.20;;;4.20;99.90;;;;;;4978045;28;20208;-73
2022/01/25 00:45:36;;;;;;;13.33;10.00;;;4.20;99.90;;;;;;4979827;28;20675;-74
2022/01/25 00:48:04;;;;;;;16.33;10.40;;;4.20;99.90;;;;;;4972983;28;20176;-74
2022/01/25 00:50:37;;;;;;;14.07;10.00;;;4.10;99.90;;;;;;4973136;28;20713;-74
2022/01/25 00:55:31;;;;;;;12.57;8.90;;;4.10;99.90;;;;;;4973097;28;20188;-75
2022/01/25 00:57:57;;;;;;;15.17;10.20;;;4.10;99.90;;;;;;4976753;28;20904;-76
2022/01/25 01:00:23;;;;;;;13.90;9.67;;;4.20;99.90;;;;;;4974598;28;20188;-73
2022/01/25 01:02:49;;;;;;;13.93;9.50;;;4.20;99.90;;;;;;4975346;28;20188;-75
2022/01/25 01:05:15;;;;;;;12.47;8.57;;;4.10;99.90;;;;;;4972273;28;20281;-74
2022/01/25 01:07:42;;;;;;;14.03;9.00;;;4.10;99.90;;;;;;4977219;28;20189;-74
2022/01/25 01:10:08;;;;;;;14.33;9.10;;;4.10;99.90;;;;;;4975747;28;20559;-75
2022/01/25 01:15:31;;;;;;;12.17;8.17;;;4.10;99.90;;;;;;4976517;28;20708;-74
2022/01/25 01:29:17;;;;;;;14.47;8.40;;;4.00;99.90;;;;;;4973031;28;20203;-73
2022/01/25 01:35:21;;;;;;;12.30;8.40;;;4.10;99.90;;;;;;4976725;28;20580;-75
2022/01/25 01:45:10;;;;;;;11.80;7.63;;;4.10;99.90;;;;;;4974890;28;20381;-74
2022/01/25 01:47:47;;;;;;;10.87;7.53;;;4.20;99.90;;;;;;4969877;28;20559;-76
2022/01/25 01:50:25;;;;;;;14.03;8.77;;;4.10;99.90;;;;;;4964256;28;20180;-75
2022/01/25 01:52:51;;;;;;;13.90;8.10;;;4.10;99.90;;;;;;4974717;28;20621;-73
2022/01/25 01:55:17;;;;;;;14.13;9.57;;;4.20;99.90;;;;;;4974676;28;20650;-74
2022/01/25 01:57:43;;;;;;;15.50;9.37;;;4.20;99.90;;;;;;4976067;28;20189;-74
2022/01/25 02:00:09;;;;;;;13.87;9.03;;;4.10;99.90;;;;;;4978959;28;20641;-74
2022/01/25 02:02:35;;;;;;;15.37;9.00;;;4.10;99.90;;;;;;4976166;28;20659;-73
2022/01/25 02:05:01;;;;;;;14.53;9.07;;;4.10;99.90;;;;;;4970014;28;20314;-75
2022/01/25 02:07:27;;;;;;;13.43;8.50;;;4.10;99.90;;;;;;4975614;28;20293;-75
2022/01/25 02:09:52;;;;;;;12.33;8.40;;;4.10;99.90;;;;;;4978572;28;20184;-74
2022/01/25 02:12:18;;;;;;;13.37;8.50;;;4.00;99.90;;;;;;4977617;28;20220;-75
2022/01/25 02:14:44;;;;;;;12.43;8.30;;;4.00;99.90;;;;;;4973714;28;20219;-74
2022/01/25 02:22:57;;;;;;;13.03;8.07;;;3.90;99.90;;;;;;4972525;28;20258;-73
2022/01/25 02:25:24;;;;;;;12.93;8.83;;;4.10;99.90;;;;;;4973475;28;20208;-73
2022/01/25 02:27:50;;;;;;;12.87;8.40;;;4.00;99.90;;;;;;4975671;28;20185;-73
2022/01/25 02:30:16;;;;;;;14.60;9.07;;;4.00;99.90;;;;;;4973542;28;20189;-73
2022/01/25 02:32:42;;;;;;;13.53;8.57;;;3.90;99.90;;;;;;4979365;28;20203;-73
2022/01/25 02:35:08;;;;;;;14.63;9.60;;;3.90;99.90;;;;;;4972829;28;20464;-74
2022/01/25 02:37:34;;;;;;;15.90;10.03;;;4.00;99.90;;;;;;4978153;28;20573;-74
2022/01/25 02:40:00;;;;;;;17.43;10.00;;;4.00;99.90;;;;;;4973652;28;20189;-73
2022/01/25 02:42:26;;;;;;;14.93;9.57;;;3.90;99.90;;;;;;4975687;28;20275;-74
2022/01/25 02:44:52;;;;;;;15.57;9.63;;;3.90;99.90;;;;;;4976678;28;20207;-74
2022/01/25 02:50:03;;;;;;;16.03;9.47;;;3.90;99.90;;;;;;4977171;28;20651;-73
2022/01/25 02:52:29;;;;;;;15.87;9.00;;;3.90;99.90;;;;;;4981886;28;20185;-77
2022/01/25 02:54:55;;;;;;;15.13;9.60;;;3.90;99.90;;;;;;4980465;28;20588;-76
2022/01/25 02:57:22;;;;;;;15.03;9.43;;;3.90;99.90;;;;;;4973608;28;20180;-75
2022/01/25 02:59:48;;;;;;;14.73;9.40;;;3.90;99.90;;;;;;4975936;28;20197;-74
2022/01/25 03:02:14;;;;;;;14.13;9.27;;;3.90;99.90;;;;;;4975127;28;20203;-76
2022/01/25 03:04:39;;;;;;;20.67;10.03;;;3.90;99.90;;;;;;4971715;28;20223;-73
2022/01/25 03:07:05;;;;;;;16.33;9.53;;;3.80;99.90;;;;;;4972434;28;20193;-76
2022/01/25 03:09:31;;;;;;;15.80;9.90;;;3.80;99.90;;;;;;4977099;28;20184;-77
2022/01/25 03:11:59;;;;;;;15.27;9.70;;;3.80;99.90;;;;;;4976638;28;20184;-76
2022/01/25 03:14:26;;;;;;;14.80;9.23;;;3.80;99.90;;;;;;4970489;28;20201;-74
2022/01/25 03:25:01;;;;;;;13.80;9.40;;;3.80;99.90;;;;;;4968084;28;20294;-73
2022/01/25 03:27:27;;;;;;;14.97;9.27;;;3.90;99.90;;;;;;4974217;28;20708;-73
2022/01/25 03:29:52;;;;;;;17.00;9.93;;;3.80;99.90;;;;;;4975503;28;20181;-73
2022/01/25 03:32:18;;;;;;;13.17;9.10;;;3.80;99.90;;;;;;4969437;28;20196;-75
2022/01/25 03:34:43;;;;;;;15.53;9.93;;;3.80;99.90;;;;;;4978961;28;20684;-73
2022/01/25 03:37:09;;;;;;;15.77;9.57;;;3.80;99.90;;;;;;4970279;28;20197;-74
2022/01/25 03:39:35;;;;;;;17.87;10.13;;;4.00;99.90;;;;;;4972413;28;20621;-78
2022/01/25 03:42:06;;;;;;;16.90;10.17;;;3.90;99.90;;;;;;4972680;28;20192;-75
2022/01/25 03:44:31;;;;;;;15.00;10.00;;;3.90;99.90;;;;;;4971664;28;20237;-74
2022/01/25 03:47:04;;;;;;;16.50;10.50;;;3.80;99.90;;;;;;4975449;28;20253;-75
2022/01/25 03:49:50;;;;;;;15.80;10.53;;;3.80;99.90;;;;;;4974045;28;20690;-74
2022/01/25 03:52:24;;;;;;;18.13;9.77;;;3.70;99.90;;;;;;4975451;28;20188;-76
2022/01/25 03:54:50;;;;;;;17.87;10.57;;;3.70;99.90;;;;;;4958056;28;20200;-76
2022/01/25 03:57:17;;;;;;;17.43;10.93;;;3.80;99.90;;;;;;4977912;28;20201;-74
2022/01/25 03:59:43;;;;;;;18.93;10.33;;;3.70;99.90;;;;;;4974689;28;20195;-76
2022/01/25 04:02:09;;;;;;;16.00;9.90;;;3.70;99.90;;;;;;4977979;28;20192;-76
2022/01/25 04:04:35;;;;;;;16.23;10.17;;;3.70;99.90;;;;;;4976851;28;20230;-74
2022/01/25 04:07:08;;;;;;;15.57;9.87;;;3.80;99.90;;;;;;4978210;28;20313;-75
2022/01/25 04:09:34;;;;;;;15.97;9.77;;;3.70;99.90;;;;;;4974613;28;20181;-73
2022/01/25 04:12:01;;;;;;;17.37;10.97;;;3.70;99.90;;;;;;4978090;28;20665;-76
2022/01/25 04:14:28;;;;;;;20.17;10.93;;;3.70;99.90;;;;;;4974188;28;20332;-73
2022/01/25 04:17:01;;;;;;;21.13;11.87;;;3.70;99.90;;;;;;4979667;28;20173;-74
2022/01/25 04:19:35;;;;;;;20.83;12.13;;;3.70;99.90;;;;;;4959306;28;20232;-77
2022/01/25 04:27:25;;;;;;;17.77;11.07;;;3.60;99.90;;;;;;4978931;28;20256;-76
2022/01/25 04:29:51;;;;;;;19.37;11.83;;;3.80;99.90;;;;;;4977608;28;20191;-75
2022/01/25 04:32:31;;;;;;;18.50;10.47;;;3.70;99.90;;;;;;4975262;28;20302;-75
2022/01/25 04:35:57;;;;;;;17.20;10.33;;;3.70;99.90;;;;;;4959080;28;20236;-77
2022/01/25 04:49:03;;;;;;;18.40;11.00;;;3.60;99.90;;;;;;4975253;28;20192;-75
2022/01/25 04:54:29;;;;;;;20.73;10.73;;;3.60;99.90;;;;;;4976990;28;20208;-74
2022/01/25 04:59:50;;;;;;;25.07;12.77;;;3.60;99.90;;;;;;4975337;28;20275;-74
2022/01/25 05:02:31;;;;;;;23.40;12.53;;;3.70;99.90;;;;;;4982040;28;20653;-74
2022/01/25 05:05:10;;;;;;;22.53;12.60;;;3.70;99.90;;;;;;4974742;28;20220;-74
2022/01/25 05:10:30;;;;;;;26.10;13.53;;;3.70;99.90;;;;;;4947561;28;20184;-76
2022/01/25 05:13:16;;;;;;;25.33;13.60;;;3.70;99.90;;;;;;4980003;28;20677;-74
2022/01/25 05:23:24;;;;;;;22.93;11.70;;;3.80;99.90;;;;;;4971997;28;20211;-75
2022/01/25 05:25:49;;;;;;;23.63;12.57;;;3.70;99.90;;;;;;4978092;28;20212;-73
2022/01/25 05:28:15;;;;;;;25.70;12.90;;;3.60;99.90;;;;;;4971603;28;20193;-74
2022/01/25 05:30:40;;;;;;;23.80;13.07;;;3.60;99.90;;;;;;4976817;28;20185;-74
2022/01/25 05:33:06;;;;;;;23.57;12.87;;;3.60;99.90;;;;;;4977675;28;20184;-75
2022/01/25 05:35:32;;;;;;;22.60;12.73;;;3.70;99.90;;;;;;4976527;28;20664;-72
2022/01/25 05:37:58;;;;;;;20.00;11.67;;;3.70;99.90;;;;;;4981183;28;20187;-75
2022/01/25 05:40:59;;;;;;;21.03;13.07;;;3.60;99.90;;;;;;4975671;28;20199;-75
2022/01/25 05:48:31;;;;;;;22.83;13.20;;;3.60;99.90;;;;;;4975951;28;20565;-75
2022/01/25 05:50:58;;;;;;;26.10;13.80;;;3.60;99.90;;;;;;4977338;28;20206;-74
2022/01/25 05:53:24;;;;;;;21.03;12.53;;;3.60;99.90;;;;;;4979404;28;20749;-74
2022/01/25 05:55:49;;;;;;;23.40;12.83;;;3.60;99.90;;;;;;4971069;28;20193;-72
2022/01/25 05:58:15;;;;;;;22.87;12.67;;;3.70;99.90;;;;;;4982478;28;20659;-73
2022/01/25 06:00:41;;;;;;;25.97;13.97;;;3.60;99.90;;;;;;4979663;28;20184;-73
2022/01/25 06:03:07;;;;;;;29.23;15.13;;;3.60;99.90;;;;;;4975698;28;20610;-75
2022/01/25 06:05:36;;;;;;;27.10;14.57;;;3.70;99.90;;;;;;4975337;28;20227;-71
2022/01/25 06:08:03;;;;;;;27.30;15.17;;;3.70;99.90;;;;;;4975496;28;20180;-73
2022/01/25 06:10:31;;;;;;;27.07;15.13;;;3.70;99.90;;;;;;4971864;28;20532;-72
2022/01/25 06:12:56;;;;;;;23.40;13.77;;;3.60;99.90;;;;;;4974493;28;20196;-73
2022/01/25 06:15:22;;;;;;;25.67;13.80;;;3.70;99.90;;;;;;4968917;28;20204;-73
2022/01/25 06:17:49;;;;;;;23.47;13.07;;;3.70;99.90;;;;;;4975488;28;20195;-74
2022/01/25 06:20:15;;;;;;;23.37;13.60;;;3.70;99.90;;;;;;4970622;28;20200;-75
2022/01/25 06:22:41;;;;;;;26.30;13.90;;;3.70;99.90;;;;;;4978930;28;20188;-74
2022/01/25 06:25:10;;;;;;;31.47;15.37;;;3.80;99.90;;;;;;4971129;28;20227;-75
2022/01/25 06:27:38;;;;;;;29.80;14.80;;;3.70;99.90;;;;;;4969400;28;20558;-75
2022/01/25 06:30:04;;;;;;;28.17;14.93;;;3.70;99.90;;;;;;4970730;28;20192;-74
2022/01/25 06:32:30;;;;;;;30.03;15.77;;;3.70;99.90;;;;;;4980717;28;20274;-73
2022/01/25 06:34:56;;;;;;;27.47;14.77;;;3.70;99.90;;;;;;4975104;28;20370;-75
2022/01/25 06:37:21;;;;;;;31.90;15.47;;;3.80;99.90;;;;;;4974483;28;20192;-75
2022/01/25 06:39:48;;;;;;;29.47;15.57;;;3.70;99.90;;;;;;4977045;28;20188;-73
2022/01/25 06:42:13;;;;;;;31.67;16.03;;;3.60;99.90;;;;;;4964108;28;20544;-73
2022/01/25 06:44:39;;;;;;;32.10;16.10;;;3.60;99.90;;;;;;4972953;28;20223;-74
2022/01/25 06:47:08;;;;;;;32.90;17.67;;;3.60;99.90;;;;;;4971881;28;20191;-74
2022/01/25 06:49:33;;;;;;;34.90;18.30;;;3.50;99.90;;;;;;4973216;28;20565;-72
2022/01/25 06:51:59;;;;;;;33.50;17.67;;;3.60;99.90;;;;;;4966271;28;20199;-74
2022/01/25 06:54:25;;;;;;;36.93;16.97;;;3.50;99.90;;;;;;4953152;28;20679;-73
2022/01/25 06:56:51;;;;;;;35.20;16.13;;;3.60;99.90;;;;;;4970567;28;20675;-73
2022/01/25 06:59:16;;;;;;;35.87;17.37;;;3.50;99.90;;;;;;4977610;28;20207;-73
2022/01/25 07:01:42;;;;;;;37.97;17.93;;;3.50;99.90;;;;;;4978245;28;20211;-73
2022/01/25 07:04:07;;;;;;;32.53;16.47;;;3.50;99.90;;;;;;4971463;28;20314;-75
2022/01/25 07:06:33;;;;;;;36.60;17.67;;;3.50;99.90;;;;;;4970211;28;20335;-73
2022/01/25 07:09:00;;;;;;;38.57;17.83;;;3.50;99.90;;;;;;4975346;28;20641;-72
2022/01/25 07:11:26;;;;;;;35.17;17.93;;;3.40;99.90;;;;;;4973547;28;20239;-73
2022/01/25 07:13:52;;;;;;;41.50;18.57;;;3.50;99.90;;;;;;4968751;28;20201;-72
2022/01/25 07:16:17;;;;;;;37.17;18.53;;;3.50;99.90;;;;;;4970095;28;20192;-73
2022/01/25 07:18:43;;;;;;;36.07;17.80;;;3.40;99.90;;;;;;4975964;28;20181;-72
2022/01/25 07:21:09;;;;;;;36.83;18.80;;;3.40;99.90;;;;;;4974506;28;20202;-73
2022/01/25 07:23:35;;;;;;;32.03;17.27;;;3.50;99.90;;;;;;4971841;28;20323;-74
2022/01/25 07:26:00;;;;;;;40.10;18.77;;;3.40;99.90;;;;;;4968658;28;20236;-72
2022/01/25 07:28:26;;;;;;;37.07;18.07;;;3.50;99.90;;;;;;4977535;28;20684;-74
2022/01/25 07:30:52;;;;;;;40.47;18.97;;;3.40;99.90;;;;;;4975547;28;20192;-74
2022/01/25 07:33:17;;;;;;;37.33;17.60;;;3.40;99.90;;;;;;4974363;28;20251;-73
2022/01/25 07:35:45;;;;;;;36.10;17.97;;;3.40;99.90;;;;;;4978485;28;20441;-73
2022/01/25 07:38:11;;;;;;;37.63;18.40;;;3.30;99.90;;;;;;4976472;28;20178;-73
2022/01/25 07:40:37;;;;;;;38.27;18.77;;;3.30;99.90;;;;;;4975493;28;20193;-74
2022/01/25 07:43:04;;;;;;;37.23;17.03;;;3.30;99.90;;;;;;4973424;28;20181;-74
2022/01/25 07:45:35;;;;;;;36.13;17.40;;;3.30;99.90;;;;;;4980164;28;20216;-73
2022/01/25 07:48:11;;;;;;;31.30;15.83;;;3.30;99.90;;;;;;4976105;28;20181;-73
2022/01/25 07:50:38;;;;;;;35.00;18.10;;;3.40;99.90;;;;;;4976915;28;20172;-73
2022/01/25 07:53:04;;;;;;;33.53;16.63;;;3.40;99.90;;;;;;4977332;28;20252;-74
2022/01/25 07:55:29;;;;;;;33.47;17.07;;;3.40;99.90;;;;;;4972242;28;20192;-73
2022/01/25 07:57:55;;;;;;;36.70;17.20;;;3.40;99.90;;;;;;4976021;28;20196;-74
2022/01/25 08:00:21;;;;;;;36.33;17.77;;;3.40;99.90;;;;;;4973756;28;20188;-75
2022/01/25 08:02:47;;;;;;;32.20;16.27;;;3.40;99.90;;;;;;4979939;28;20193;-74
2022/01/25 08:05:18;;;;;;;35.83;17.87;;;3.40;99.90;;;;;;4977915;28;20221;-74
2022/01/25 08:07:44;;;;;;;36.60;17.43;;;3.50;99.90;;;;;;4987402;28;20240;-75
2022/01/25 08:10:10;;;;;;;35.67;17.63;;;3.50;99.90;;;;;;4977007;28;20271;-74
2022/01/25 08:12:36;;;;;;;38.17;17.37;;;3.40;99.90;;;;;;4980782;28;20513;-74
2022/01/25 08:15:04;;;;;;;37.90;17.60;;;3.40;99.90;;;;;;4975595;28;20208;-75
2022/01/25 08:17:30;;;;;;;34.37;17.77;;;3.40;99.90;;;;;;4973518;28;20188;-76
2022/01/25 08:19:56;;;;;;;36.87;18.30;;;3.40;99.90;;;;;;4977380;28;20579;-75
2022/01/25 08:22:21;;;;;;;32.97;15.70;;;3.40;99.90;;;;;;4976559;28;20268;-74
2022/01/25 08:24:48;;;;;;;32.70;16.13;;;3.40;99.90;;;;;;4971890;28;20208;-75
2022/01/25 08:27:14;;;;;;;34.53;17.53;;;3.40;99.90;;;;;;4980418;28;20247;-74
2022/01/25 08:29:40;;;;;;;32.27;16.47;;;3.30;99.90;;;;;;4976630;28;20194;-74
2022/01/25 08:32:06;;;;;;;33.83;17.57;;;3.30;99.90;;;;;;4977126;28;20188;-74
2022/01/25 08:34:31;;;;;;;34.83;17.73;;;3.30;99.90;;;;;;4977083;28;20205;-73
2022/01/25 08:36:58;;;;;;;36.23;16.90;;;3.40;99.90;;;;;;4975144;28;20184;-79
2022/01/25 08:39:26;;;;;;;33.17;16.10;;;3.50;99.90;;;;;;4976828;28;20234;-75
2022/01/25 08:41:52;;;;;;;32.83;17.17;;;3.50;99.90;;;;;;4976313;28;20192;-75
2022/01/25 08:44:18;;;;;;;33.90;17.00;;;3.50;99.90;;;;;;4975033;28;20730;-76
2022/01/25 08:46:44;;;;;;;34.87;18.00;;;3.50;99.90;;;;;;4974820;28;20221;-74
2022/01/25 08:49:10;;;;;;;37.33;18.10;;;3.40;99.90;;;;;;4979910;28;20195;-75
2022/01/25 08:51:36;;;;;;;33.90;18.00;;;3.50;99.90;;;;;;4981474;28;20528;-73
2022/01/25 08:54:01;;;;;;;32.80;17.53;;;3.50;99.90;;;;;;4977169;28;20208;-74
2022/01/25 08:56:27;;;;;;;34.30;16.50;;;3.50;99.90;;;;;;4979790;28;20703;-73
2022/01/25 08:58:54;;;;;;;32.03;16.43;;;3.50;99.90;;;;;;4972489;28;20181;-75
2022/01/25 09:01:20;;;;;;;33.73;17.67;;;3.50;99.90;;;;;;4978014;28;20200;-77
2022/01/25 09:03:46;;;;;;;29.30;16.83;;;3.50;99.90;;;;;;4978147;28;20259;-76
2022/01/25 09:06:12;;;;;;;29.83;15.20;;;3.60;99.90;;;;;;4976360;28;20263;-78
2022/01/25 09:08:38;;;;;;;27.70;14.53;;;3.70;99.90;;;;;;4975881;28;20223;-74
2022/01/25 09:11:05;;;;;;;28.17;14.53;;;3.70;99.90;;;;;;4977461;28;20633;-74
2022/01/25 09:13:32;;;;;;;28.90;14.63;;;3.70;99.90;;;;;;4973387;28;20220;-75
2022/01/25 09:15:59;;;;;;;31.67;16.60;;;3.80;99.90;;;;;;4974635;28;20288;-74
2022/01/25 09:18:25;;;;;;;30.63;16.47;;;3.90;99.90;;;;;;4976263;28;20199;-73
2022/01/25 09:20:51;;;;;;;29.67;15.07;;;4.00;99.90;;;;;;4972310;28;20188;-73
2022/01/25 09:23:19;;;;;;;31.47;15.80;;;3.80;99.90;;;;;;4977912;28;20203;-73
2022/01/25 09:25:47;;;;;;;31.03;16.63;;;3.80;99.90;;;;;;4977797;28;20216;-74
2022/01/25 09:28:14;;;;;;;30.17;15.27;;;3.80;99.90;;;;;;4976945;28;20189;-73
2022/01/25 09:30:40;;;;;;;30.83;15.40;;;3.80;99.90;;;;;;4976256;28;20187;-74
2022/01/25 09:33:06;;;;;;;30.80;15.77;;;3.80;99.90;;;;;;4977890;28;20268;-72
2022/01/25 09:35:32;;;;;;;31.10;15.43;;;3.90;99.90;;;;;;4975714;28;20644;-73
2022/01/25 09:37:58;;;;;;;29.17;14.83;;;3.90;99.90;;;;;;4976307;28;20272;-74
2022/01/25 09:40:24;;;;;;;30.43;15.97;;;3.90;99.90;;;;;;4974532;28;20188;-73
2022/01/25 09:42:53;;;;;;;31.40;15.37;;;4.00;99.90;;;;;;4972148;28;20192;-74
2022/01/25 09:45:20;;;;;;;29.40;15.07;;;4.00;99.90;;;;;;4973083;28;20295;-73
2022/01/25 09:47:47;;;;;;;28.33;14.70;;;4.10;99.90;;;;;;4972800;28;20192;-75
2022/01/25 09:50:13;;;;;;;29.27;14.53;;;4.00;99.90;;;;;;4976361;28;20195;-73
2022/01/25 09:52:42;;;;;;;31.27;14.80;;;4.00;99.90;;;;;;4975417;28;20187;-74
2022/01/25 09:55:17;;;;;;;29.70;15.13;;;4.00;99.90;;;;;;4976847;28;20627;-73
2022/01/25 09:57:43;;;;;;;28.60;14.00;;;4.00;99.90;;;;;;4972650;28;20184;-73
2022/01/25 10:00:12;;;;;;;29.73;14.03;;;4.00;99.90;;;;;;4973363;28;20192;-73
2022/01/25 10:05:33;;;;;;;29.50;14.50;;;4.00;99.90;;;;;;4973143;28;20248;-74
2022/01/25 10:08:09;;;;;;;27.23;13.60;;;3.90;99.90;;;;;;4972802;28;20189;-73
2022/01/25 10:10:38;;;;;;;27.63;13.57;;;3.90;99.90;;;;;;4975596;28;20185;-73
2022/01/25 10:13:27;;;;;;;29.70;14.83;;;4.00;99.90;;;;;;4974697;28;20193;-74
2022/01/25 10:16:17;;;;;;;30.83;14.57;;;4.00;99.90;;;;;;4979512;28;20195;-73
2022/01/25 10:18:53;;;;;;;25.27;13.50;;;4.00;99.90;;;;;;4964482;28;20189;-74
2022/01/25 10:21:32;;;;;;;28.37;14.03;;;4.00;99.90;;;;;;4976140;28;20208;-74
2022/01/25 10:24:06;;;;;;;30.37;14.50;;;4.00;99.90;;;;;;4973558;28;20228;-74
2022/01/25 10:26:50;;;;;;;29.67;14.83;;;4.00;99.90;;;;;;4977558;28;20214;-73
2022/01/25 10:29:26;;;;;;;26.47;13.30;;;4.10;99.90;;;;;;4977175;28;20187;-74
2022/01/25 10:31:57;;;;;;;30.27;15.30;;;4.10;99.90;;;;;;4973799;28;20208;-74
2022/01/25 10:34:29;;;;;;;26.97;13.37;;;4.00;99.90;;;;;;4974063;28;20215;-74
2022/01/25 10:36:57;;;;;;;27.80;14.10;;;4.00;99.90;;;;;;4975156;28;20296;-73
2022/01/25 10:39:32;;;;;;;28.77;13.67;;;4.00;99.90;;;;;;4974780;28;20200;-74
2022/01/25 10:42:08;;;;;;;27.23;13.43;;;4.10;99.90;;;;;;4973785;28;20191;-78
2022/01/25 10:44:58;;;;;;;28.20;14.70;;;4.10;99.90;;;;;;4975588;28;20216;-74
2022/01/25 10:47:55;;;;;;;23.77;12.10;;;4.10;99.90;;;;;;4979122;28;20181;-74
2022/01/25 10:50:34;;;;;;;24.87;13.07;;;4.20;99.90;;;;;;4958946;28;20628;-73
2022/01/25 10:53:06;;;;;;;23.93;12.43;;;4.10;99.90;;;;;;4976297;28;20222;-74
2022/01/25 10:55:37;;;;;;;29.97;14.47;;;4.20;99.90;;;;;;4976199;28;20188;-75
2022/01/25 10:58:04;;;;;;;29.53;14.93;;;4.20;99.90;;;;;;4973973;28;20207;-75
2022/01/25 11:00:35;;;;;;;28.57;15.93;;;4.20;99.90;;;;;;4974853;28;20192;-74
2022/01/25 11:03:02;;;;;;;29.37;15.00;;;4.20;99.90;;;;;;4978824;28;20184;-74
2022/01/25 11:05:38;;;;;;;31.27;15.60;;;4.20;99.90;;;;;;4971138;28;20216;-73
2022/01/25 11:08:15;;;;;;;32.87;16.23;;;4.20;99.90;;;;;;4976897;28;20263;-73
2022/01/25 11:10:53;;;;;;;30.70;15.57;;;4.20;99.90;;;;;;4971397;28;20898;-75
2022/01/25 11:15:57;;;;;;;27.57;14.63;;;4.20;99.90;;;;;;4972216;28;20562;-74
2022/01/25 11:18:22;;;;;;;27.87;14.30;;;4.20;99.90;;;;;;4978094;28;20456;-75
2022/01/25 11:20:52;;;;;;;32.63;16.70;;;4.20;99.90;;;;;;4974231;28;20188;-74
2022/01/25 11:23:18;;;;;;;31.10;15.80;;;4.20;99.90;;;;;;4976682;28;20299;-74
2022/01/25 11:25:46;;;;;;;29.80;15.37;;;4.20;99.90;;;;;;4975333;28;20497;-74
2022/01/25 11:28:13;;;;;;;32.70;16.60;;;4.20;99.90;;;;;;4975721;28;20208;-74
2022/01/25 11:30:40;;;;;;;31.27;16.27;;;4.20;99.90;;;;;;4959995;28;20213;-73
2022/01/25 11:33:09;;;;;;;33.83;15.80;;;4.30;99.90;;;;;;4973717;28;20177;-74
2022/01/25 11:35:36;;;;;;;32.73;16.13;;;4.40;99.90;;;;;;4976149;28;20184;-74
2022/01/25 11:38:03;;;;;;;35.97;16.00;;;4.40;99.90;;;;;;4971045;28;20187;-75
2022/01/25 11:40:37;;;;;;;33.50;17.23;;;4.50;99.90;;;;;;4970399;28;20181;-74
2022/01/25 11:43:09;;;;;;;32.17;16.77;;;4.50;99.90;;;;;;4966412;28;20929;-72
2022/01/25 11:45:42;;;;;;;32.57;15.50;;;4.60;99.90;;;;;;4970988;28;20251;-75
2022/01/25 11:48:07;;;;;;;30.33;16.07;;;4.60;99.90;;;;;;4972563;28;20181;-73
2022/01/25 11:50:40;;;;;;;32.70;15.83;;;4.60;99.90;;;;;;4972105;28;20602;-72
2022/01/25 11:53:09;;;;;;;29.03;15.17;;;4.60;99.90;;;;;;4970445;28;20553;-73
2022/01/25 11:55:52;;;;;;;29.57;14.20;;;4.60;99.90;;;;;;4969497;28;20678;-73
2022/01/25 11:58:21;;;;;;;29.27;14.67;;;4.80;99.90;;;;;;4972918;28;20671;-75
2022/01/25 12:00:50;;;;;;;30.80;14.47;;;5.00;99.90;;;;;;4974135;28;20180;-75
2022/01/25 12:03:32;;;;;;;32.97;15.37;;;5.10;99.90;;;;;;4970911;28;20214;-74
2022/01/25 12:06:14;;;;;;;27.10;13.57;;;5.00;99.90;;;;;;4973777;28;20282;-74
2022/01/25 12:09:08;;;;;;;30.97;14.50;;;5.00;99.90;;;;;;4974957;28;20227;-76
2022/01/25 12:11:49;;;;;;;37.97;14.70;;;5.20;99.90;;;;;;4967800;28;20215;-75
2022/01/25 12:14:38;;;;;;;26.60;13.97;;;5.40;99.90;;;;;;4973677;28;20244;-74
2022/01/25 12:17:04;;;;;;;28.53;12.90;;;5.50;99.90;;;;;;4971133;28;20195;-79
2022/01/25 12:19:46;;;;;;;26.00;13.33;;;5.50;99.90;;;;;;4976590;28;20184;-72
2022/01/25 12:22:25;;;;;;;26.10;13.30;;;5.30;99.90;;;;;;4975837;28;20184;-72
2022/01/25 12:25:18;;;;;;;29.27;13.20;;;5.10;99.90;;;;;;4972101;28;20208;-73
2022/01/25 12:27:55;;;;;;;28.20;13.67;;;4.90;99.90;;;;;;4975107;28;20653;-73
2022/01/25 12:30:31;;;;;;;26.87;14.43;;;4.80;99.90;;;;;;4974740;28;20179;-72
2022/01/25 12:33:08;;;;;;;27.97;12.80;;;5.00;99.90;;;;;;4977645;28;20258;-75
2022/01/25 12:35:50;;;;;;;29.10;13.67;;;5.00;99.90;;;;;;4969309;28;20281;-74
2022/01/25 12:38:39;;;;;;;24.60;13.23;;;5.20;99.90;;;;;;4971427;28;20192;-72
2022/01/25 12:41:08;;;;;;;26.43;13.10;;;5.40;99.90;;;;;;4972629;28;20192;-73
2022/01/25 12:43:38;;;;;;;24.17;12.53;;;5.70;99.90;;;;;;4975147;28;20196;-75
2022/01/25 12:46:16;;;;;;;22.87;12.37;;;5.90;99.90;;;;;;4992955;22;20307;-77
2022/01/25 12:49:07;;;;;;;25.87;13.33;;;6.00;99.90;;;;;;4989064;28;20180;-78
2022/01/25 12:51:36;;;;;;;24.00;12.80;;;5.90;99.90;;;;;;4989107;28;20161;-77
2022/01/25 12:54:05;;;;;;;26.20;13.33;;;5.90;99.90;;;;;;4988260;28;20234;-78
2022/01/25 12:56:34;;;;;;;23.50;11.90;;;5.90;99.90;;;;;;4986604;28;20208;-78
2022/01/25 12:59:05;;;;;;;26.20;12.70;;;5.90;99.90;;;;;;4988479;28;20188;-78
2022/01/25 13:01:32;;;;;;;22.17;11.20;;;5.90;99.90;;;;;;4970457;28;20192;-78
2022/01/25 13:04:00;;;;;;;22.70;12.63;;;5.90;99.90;;;;;;4987791;28;21281;-78
2022/01/25 13:06:37;;;;;;;22.07;11.73;;;6.00;99.90;;;;;;4970500;28;20239;-78
2022/01/25 13:09:45;;;;;;;23.03;11.50;;;5.90;99.90;;;;;;4970027;28;20995;-77
2022/01/25 13:17:14;;;;;;;22.70;11.37;;;6.00;99.90;;;;;;4988636;28;20211;-78
2022/01/25 13:19:45;;;;;;;20.47;10.70;;;6.10;99.90;;;;;;4970889;28;20207;-78
2022/01/25 13:22:28;;;;;;;18.10;10.20;;;6.00;99.90;;;;;;4988361;28;20262;-78
2022/01/25 13:25:13;;;;;;;23.40;11.37;;;6.00;99.90;;;;;;4988248;28;20172;-80
2022/01/25 13:27:56;;;;;;;22.47;12.07;;;5.90;99.90;;;;;;4971233;28;20180;-77
2022/01/25 13:30:45;;;;;;;27.53;13.57;;;5.60;99.90;;;;;;4988830;28;20212;-79
2022/01/25 13:33:19;;;;;;;25.43;12.57;;;5.60;99.90;;;;;;4971255;28;20176;-80
2022/01/25 13:35:49;;;;;;;24.13;11.97;;;5.40;99.90;;;;;;4971404;28;20206;-80
2022/01/25 13:38:21;;;;;;;21.93;12.20;;;5.30;99.90;;;;;;4988655;28;20176;-80
2022/01/25 13:41:18;;;;;;;23.60;11.80;;;5.20;99.90;;;;;;4970317;28;20184;-78
2022/01/25 13:46:10;;;;;;;21.03;11.60;;;5.20;99.90;;;;;;4984562;28;20749;-77
2022/01/25 13:48:36;;;;;;;23.90;12.70;;;5.20;99.90;;;;;;4969116;28;20180;-78
2022/01/25 13:51:08;;;;;;;23.80;12.07;;;5.10;99.90;;;;;;4985706;28;21112;-79
2022/01/25 13:53:36;;;;;;;23.03;11.63;;;5.20;99.90;;;;;;4986069;28;20175;-80
2022/01/25 13:56:04;;;;;;;27.77;13.70;;;5.10;99.90;;;;;;4966091;28;20218;-78
2022/01/25 13:58:32;;;;;;;21.97;11.90;;;5.20;99.90;;;;;;4984819;28;20188;-81
2022/01/25 14:00:59;;;;;;;19.47;10.93;;;5.30;99.90;;;;;;4986081;28;20658;-80
2022/01/25 14:03:32;;;;;;;19.53;10.73;;;5.20;99.90;;;;;;4968078;28;20635;-77
2022/01/25 14:05:58;;;;;;;22.43;11.30;;;5.20;99.90;;;;;;4986084;28;20212;-77
2022/01/25 14:08:43;;;;;;;22.83;11.70;;;5.10;99.90;;;;;;4985358;28;20253;-77
2022/01/25 14:25:33;;;;;;;20.73;11.23;;;5.00;99.90;;;;;;4986029;28;20211;-77
2022/01/25 14:28:01;;;;;;;22.03;11.83;;;5.10;99.90;;;;;;4985476;28;20199;-80
2022/01/25 14:30:31;;;;;;;20.23;11.03;;;5.10;99.90;;;;;;4984435;28;20676;-77
2022/01/25 14:33:11;;;;;;;20.40;11.10;;;5.10;99.90;;;;;;4983814;28;20195;-78
2022/01/25 14:35:49;;;;;;;21.63;10.00;;;5.00;99.90;;;;;;4984229;28;20222;-77
2022/01/25 14:38:28;;;;;;;22.40;10.73;;;5.00;99.90;;;;;;4985045;28;20199;-77
2022/01/25 14:41:00;;;;;;;19.93;11.87;;;4.90;99.90;;;;;;4985378;28;20752;-80
2022/01/25 14:43:29;;;;;;;20.93;10.67;;;4.80;99.90;;;;;;4987814;28;20639;-80
2022/01/25 14:46:20;;;;;;;24.53;11.53;;;4.80;99.90;;;;;;4986916;28;20223;-79
2022/01/25 14:49:23;;;;;;;25.93;11.33;;;4.80;99.90;;;;;;4968587;28;20234;-78
2022/01/25 14:51:56;;;;;;;24.13;11.23;;;4.90;99.90;;;;;;4984803;28;20259;-78
2022/01/25 14:54:30;;;;;;;21.37;11.67;;;4.80;99.90;;;;;;4984414;28;20182;-78
2022/01/25 14:56:58;;;;;;;23.13;10.83;;;4.70;99.90;;;;;;4983227;28;20717;-78
2022/01/25 14:59:29;;;;;;;24.93;11.70;;;4.70;99.90;;;;;;4986317;28;20547;-79
2022/01/25 15:02:00;;;;;;;23.00;10.40;;;4.70;99.90;;;;;;4986517;28;20238;-78
2022/01/25 15:04:30;;;;;;;23.37;11.63;;;4.70;99.90;;;;;;4969370;28;20247;-79
2022/01/25 15:06:57;;;;;;;19.10;10.33;;;4.60;99.90;;;;;;4969067;28;21051;-77